sensor_id;sensor_type;location;lat;lon;timestamp;P1;durP1;ratioP1;P2;durP2;ratioP2
37131;SDS011;23035;50.032;21.978;2023-05-10T00:00:19;7.10;;;3.38;;
37131;SDS011;23035;50.032;21.978;2023-05-10T00:05:43;4.35;;;3.33;;
37131;SDS011;23035;50.032;21.978;2023-05-10T00:10:48;8.27;;;3.55;;
37131;SDS011;23035;50.032;21.978;2023-05-10T00:15:53;7.15;;;3.47;;
37131;SDS011;23035;50.032;21.978;2023-05-10T00:20:57;8.50;;;3.45;;
37131;SDS011;23035;50.032;21.978;2023-05-10T00:26:01;5.53;;;3.15;;
37131;SDS011;23035;50.032;21.978;2023-05-10T00:31:06;24.63;;;9.13;;
37131;SDS011;23035;50.032;21.978;2023-05-10T00:36:10;27.88;;;10.80;;
37131;SDS011;23035;50.032;21.978;2023-05-10T00:41:15;22.00;;;9.97;;
37131;SDS011;23035;50.032;21.978;2023-05-10T00:46:22;25.02;;;11.88;;
37131;SDS011;23035;50.032;21.978;2023-05-10T00:51:26;26.25;;;12.68;;
37131;SDS011;23035;50.032;21.978;2023-05-10T00:56:30;22.15;;;10.93;;
37131;SDS011;23035;50.032;21.978;2023-05-10T01:01:36;29.73;;;12.50;;
37131;SDS011;23035;50.032;21.978;2023-05-10T01:06:41;23.25;;;11.48;;
37131;SDS011;23035;50.032;21.978;2023-05-10T01:11:45;24.48;;;12.05;;
37131;SDS011;23035;50.032;21.978;2023-05-10T01:16:52;25.88;;;11.60;;
37131;SDS011;23035;50.032;21.978;2023-05-10T01:27:14;24.40;;;11.25;;
37131;SDS011;23035;50.032;21.978;2023-05-10T01:32:32;24.73;;;11.18;;
37131;SDS011;23035;50.032;21.978;2023-05-10T01:37:40;20.92;;;10.35;;
37131;SDS011;23035;50.032;21.978;2023-05-10T01:42:49;24.00;;;10.88;;
37131;SDS011;23035;50.032;21.978;2023-05-10T01:48:02;27.23;;;10.23;;
37131;SDS011;23035;50.032;21.978;2023-05-10T01:53:10;17.27;;;9.75;;
37131;SDS011;23035;50.032;21.978;2023-05-10T01:58:17;20.92;;;9.98;;
37131;SDS011;23035;50.032;21.978;2023-05-10T02:03:26;19.08;;;10.63;;
37131;SDS011;23035;50.032;21.978;2023-05-10T02:08:33;18.60;;;8.95;;
37131;SDS011;23035;50.032;21.978;2023-05-10T02:13:39;24.30;;;9.75;;
37131;SDS011;23035;50.032;21.978;2023-05-10T02:18:47;25.77;;;9.90;;
37131;SDS011;23035;50.032;21.978;2023-05-10T02:23:53;22.08;;;9.75;;
37131;SDS011;23035;50.032;21.978;2023-05-10T02:28:58;17.85;;;8.75;;
37131;SDS011;23035;50.032;21.978;2023-05-10T02:34:07;18.60;;;8.85;;
37131;SDS011;23035;50.032;21.978;2023-05-10T02:39:13;18.65;;;9.18;;
37131;SDS011;23035;50.032;21.978;2023-05-10T02:44:19;18.30;;;8.70;;
37131;SDS011;23035;50.032;21.978;2023-05-10T02:49:25;17.60;;;9.33;;
37131;SDS011;23035;50.032;21.978;2023-05-10T02:54:30;16.90;;;9.05;;
37131;SDS011;23035;50.032;21.978;2023-05-10T02:59:36;16.05;;;9.07;;
37131;SDS011;23035;50.032;21.978;2023-05-10T03:04:41;14.10;;;8.32;;
37131;SDS011;23035;50.032;21.978;2023-05-10T03:09:46;19.27;;;7.90;;
37131;SDS011;23035;50.032;21.978;2023-05-10T03:15:03;15.35;;;7.80;;
37131;SDS011;23035;50.032;21.978;2023-05-10T03:20:20;15.50;;;7.95;;
37131;SDS011;23035;50.032;21.978;2023-05-10T03:25:28;23.55;;;9.68;;
37131;SDS011;23035;50.032;21.978;2023-05-10T03:30:35;22.50;;;8.68;;
37131;SDS011;23035;50.032;21.978;2023-05-10T03:35:43;16.27;;;7.18;;
37131;SDS011;23035;50.032;21.978;2023-05-10T03:40:49;15.50;;;7.80;;
37131;SDS011;23035;50.032;21.978;2023-05-10T03:45:53;18.33;;;7.28;;
37131;SDS011;23035;50.032;21.978;2023-05-10T03:50:58;15.95;;;7.72;;
37131;SDS011;23035;50.032;21.978;2023-05-10T03:56:02;20.20;;;8.23;;
37131;SDS011;23035;50.032;21.978;2023-05-10T04:01:06;15.63;;;7.38;;
37131;SDS011;23035;50.032;21.978;2023-05-10T04:06:12;14.98;;;7.47;;
37131;SDS011;23035;50.032;21.978;2023-05-10T04:11:16;19.98;;;8.80;;
37131;SDS011;23035;50.032;21.978;2023-05-10T04:16:20;13.10;;;7.15;;
37131;SDS011;23035;50.032;21.978;2023-05-10T04:21:25;14.18;;;7.15;;
37131;SDS011;23035;50.032;21.978;2023-05-10T04:26:29;16.17;;;7.72;;
37131;SDS011;23035;50.032;21.978;2023-05-10T04:31:33;14.63;;;7.20;;
37131;SDS011;23035;50.032;21.978;2023-05-10T04:36:39;18.07;;;7.53;;
37131;SDS011;23035;50.032;21.978;2023-05-10T04:41:43;17.13;;;7.35;;
37131;SDS011;23035;50.032;21.978;2023-05-10T04:46:47;12.93;;;6.90;;
37131;SDS011;23035;50.032;21.978;2023-05-10T04:51:53;15.65;;;8.05;;
37131;SDS011;23035;50.032;21.978;2023-05-10T04:56:57;16.75;;;7.97;;
37131;SDS011;23035;50.032;21.978;2023-05-10T05:02:01;15.68;;;7.60;;
37131;SDS011;23035;50.032;21.978;2023-05-10T05:07:07;13.23;;;6.65;;
37131;SDS011;23035;50.032;21.978;2023-05-10T05:12:11;18.30;;;7.90;;
37131;SDS011;23035;50.032;21.978;2023-05-10T05:17:16;17.15;;;7.90;;
37131;SDS011;23035;50.032;21.978;2023-05-10T05:22:22;17.80;;;6.80;;
37131;SDS011;23035;50.032;21.978;2023-05-10T05:27:29;11.95;;;6.72;;
37131;SDS011;23035;50.032;21.978;2023-05-10T05:32:33;15.18;;;6.03;;
37131;SDS011;23035;50.032;21.978;2023-05-10T05:37:39;11.40;;;5.90;;
37131;SDS011;23035;50.032;21.978;2023-05-10T05:42:43;12.05;;;5.22;;
37131;SDS011;23035;50.032;21.978;2023-05-10T05:47:47;17.73;;;5.68;;
37131;SDS011;23035;50.032;21.978;2023-05-10T05:52:52;11.48;;;5.55;;
37131;SDS011;23035;50.032;21.978;2023-05-10T05:57:56;9.93;;;5.55;;
37131;SDS011;23035;50.032;21.978;2023-05-10T06:03:00;16.95;;;6.80;;
37131;SDS011;23035;50.032;21.978;2023-05-10T06:08:06;15.10;;;6.22;;
37131;SDS011;23035;50.032;21.978;2023-05-10T06:13:10;15.52;;;6.10;;
37131;SDS011;23035;50.032;21.978;2023-05-10T06:18:14;8.20;;;3.88;;
37131;SDS011;23035;50.032;21.978;2023-05-10T06:23:19;8.93;;;4.70;;
37131;SDS011;23035;50.032;21.978;2023-05-10T06:28:24;13.10;;;4.45;;
37131;SDS011;23035;50.032;21.978;2023-05-10T06:33:28;7.78;;;3.60;;
37131;SDS011;23035;50.032;21.978;2023-05-10T06:38:33;4.30;;;2.90;;
37131;SDS011;23035;50.032;21.978;2023-05-10T06:43:37;8.45;;;2.80;;
37131;SDS011;23035;50.032;21.978;2023-05-10T06:53:48;4.13;;;3.00;;
37131;SDS011;23035;50.032;21.978;2023-05-10T06:58:52;7.93;;;3.55;;
37131;SDS011;23035;50.032;21.978;2023-05-10T07:03:56;6.72;;;3.60;;
37131;SDS011;23035;50.032;21.978;2023-05-10T07:09:02;8.68;;;2.80;;
37131;SDS011;23035;50.032;21.978;2023-05-10T07:14:05;6.53;;;2.72;;
37131;SDS011;23035;50.032;21.978;2023-05-10T07:19:10;10.02;;;3.00;;
37131;SDS011;23035;50.032;21.978;2023-05-10T07:24:15;7.45;;;3.00;;
37131;SDS011;23035;50.032;21.978;2023-05-10T07:29:20;4.07;;;2.65;;
37131;SDS011;23035;50.032;21.978;2023-05-10T07:34:23;4.40;;;2.58;;
37131;SDS011;23035;50.032;21.978;2023-05-10T07:39:29;2.78;;;2.50;;
37131;SDS011;23035;50.032;21.978;2023-05-10T07:44:33;5.80;;;2.75;;
37131;SDS011;23035;50.032;21.978;2023-05-10T07:49:37;6.10;;;2.40;;
37131;SDS011;23035;50.032;21.978;2023-05-10T07:54:42;5.70;;;2.63;;
37131;SDS011;23035;50.032;21.978;2023-05-10T07:59:46;4.63;;;2.92;;
37131;SDS011;23035;50.032;21.978;2023-05-10T08:04:50;5.75;;;2.70;;
37131;SDS011;23035;50.032;21.978;2023-05-10T08:09:57;8.60;;;3.35;;
37131;SDS011;23035;50.032;21.978;2023-05-10T08:15:01;3.45;;;2.83;;
37131;SDS011;23035;50.032;21.978;2023-05-10T08:20:06;4.68;;;2.90;;
37131;SDS011;23035;50.032;21.978;2023-05-10T08:25:12;11.33;;;3.50;;
37131;SDS011;23035;50.032;21.978;2023-05-10T08:30:18;6.47;;;3.63;;
37131;SDS011;23035;50.032;21.978;2023-05-10T08:35:22;9.38;;;2.80;;
37131;SDS011;23035;50.032;21.978;2023-05-10T08:40:28;7.57;;;3.05;;
37131;SDS011;23035;50.032;21.978;2023-05-10T08:50:37;8.05;;;3.08;;
37131;SDS011;23035;50.032;21.978;2023-05-10T08:55:44;16.17;;;5.30;;
37131;SDS011;23035;50.032;21.978;2023-05-10T09:00:48;7.45;;;2.80;;
37131;SDS011;23035;50.032;21.978;2023-05-10T09:05:54;8.05;;;3.03;;
37131;SDS011;23035;50.032;21.978;2023-05-10T09:11:00;7.22;;;3.03;;
37131;SDS011;23035;50.032;21.978;2023-05-10T09:16:05;6.85;;;2.50;;
37131;SDS011;23035;50.032;21.978;2023-05-10T09:21:23;8.25;;;3.00;;
37131;SDS011;23035;50.032;21.978;2023-05-10T09:26:30;8.50;;;2.78;;
37131;SDS011;23035;50.032;21.978;2023-05-10T09:31:44;7.82;;;2.95;;
37131;SDS011;23035;50.032;21.978;2023-05-10T09:36:52;6.00;;;2.40;;
37131;SDS011;23035;50.032;21.978;2023-05-10T09:41:59;6.97;;;2.80;;
37131;SDS011;23035;50.032;21.978;2023-05-10T09:47:06;7.20;;;2.80;;
37131;SDS011;23035;50.032;21.978;2023-05-10T09:52:09;6.68;;;2.75;;
37131;SDS011;23035;50.032;21.978;2023-05-10T09:57:19;6.00;;;2.60;;
37131;SDS011;23035;50.032;21.978;2023-05-10T10:02:28;6.97;;;2.60;;
37131;SDS011;23035;50.032;21.978;2023-05-10T10:07:32;4.28;;;2.70;;
37131;SDS011;23035;50.032;21.978;2023-05-10T10:12:40;5.50;;;2.53;;
37131;SDS011;23035;50.032;21.978;2023-05-10T10:17:45;10.32;;;3.10;;
37131;SDS011;23035;50.032;21.978;2023-05-10T10:22:50;5.72;;;3.05;;
37131;SDS011;23035;50.032;21.978;2023-05-10T10:27:59;8.90;;;2.70;;
37131;SDS011;23035;50.032;21.978;2023-05-10T10:33:29;5.55;;;2.60;;
37131;SDS011;23035;50.032;21.978;2023-05-10T10:38:56;4.88;;;2.90;;
37131;SDS011;23035;50.032;21.978;2023-05-10T10:49:30;10.52;;;2.55;;
37131;SDS011;23035;50.032;21.978;2023-05-10T10:54:36;4.57;;;2.90;;
37131;SDS011;23035;50.032;21.978;2023-05-10T10:59:45;6.93;;;3.03;;
37131;SDS011;23035;50.032;21.978;2023-05-10T11:04:49;6.78;;;2.67;;
37131;SDS011;23035;50.032;21.978;2023-05-10T11:09:54;6.20;;;2.42;;
37131;SDS011;23035;50.032;21.978;2023-05-10T11:15:09;10.07;;;2.65;;
37131;SDS011;23035;50.032;21.978;2023-05-10T11:20:13;6.07;;;3.30;;
37131;SDS011;23035;50.032;21.978;2023-05-10T11:25:18;4.50;;;2.30;;
37131;SDS011;23035;50.032;21.978;2023-05-10T11:30:24;5.13;;;2.67;;
37131;SDS011;23035;50.032;21.978;2023-05-10T11:35:28;2.67;;;2.05;;
37131;SDS011;23035;50.032;21.978;2023-05-10T11:40:33;4.70;;;2.47;;
37131;SDS011;23035;50.032;21.978;2023-05-10T11:45:39;4.17;;;2.63;;
37131;SDS011;23035;50.032;21.978;2023-05-10T11:50:44;6.50;;;2.50;;
37131;SDS011;23035;50.032;21.978;2023-05-10T11:55:49;3.75;;;2.40;;
37131;SDS011;23035;50.032;21.978;2023-05-10T12:00:55;3.53;;;2.50;;
37131;SDS011;23035;50.032;21.978;2023-05-10T12:06:02;5.57;;;2.20;;
37131;SDS011;23035;50.032;21.978;2023-05-10T12:11:07;6.10;;;2.45;;
37131;SDS011;23035;50.032;21.978;2023-05-10T12:16:14;5.45;;;2.80;;
37131;SDS011;23035;50.032;21.978;2023-05-10T12:21:20;3.42;;;2.22;;
37131;SDS011;23035;50.032;21.978;2023-05-10T12:26:24;5.97;;;2.50;;
37131;SDS011;23035;50.032;21.978;2023-05-10T12:31:31;6.30;;;2.40;;
37131;SDS011;23035;50.032;21.978;2023-05-10T12:36:38;5.15;;;2.55;;
37131;SDS011;23035;50.032;21.978;2023-05-10T12:41:42;7.85;;;2.95;;
37131;SDS011;23035;50.032;21.978;2023-05-10T12:46:48;6.17;;;2.30;;
37131;SDS011;23035;50.032;21.978;2023-05-10T12:51:52;3.10;;;2.55;;
37131;SDS011;23035;50.032;21.978;2023-05-10T12:56:56;9.25;;;2.85;;
37131;SDS011;23035;50.032;21.978;2023-05-10T13:02:01;9.40;;;3.13;;
37131;SDS011;23035;50.032;21.978;2023-05-10T13:07:05;4.65;;;2.42;;
37131;SDS011;23035;50.032;21.978;2023-05-10T13:12:10;13.27;;;2.60;;
37131;SDS011;23035;50.032;21.978;2023-05-10T13:17:15;6.72;;;2.60;;
37131;SDS011;23035;50.032;21.978;2023-05-10T13:22:19;7.55;;;2.95;;
37131;SDS011;23035;50.032;21.978;2023-05-10T13:27:40;5.32;;;2.92;;
37131;SDS011;23035;50.032;21.978;2023-05-10T13:32:46;7.30;;;3.10;;
37131;SDS011;23035;50.032;21.978;2023-05-10T13:37:50;7.13;;;2.63;;
37131;SDS011;23035;50.032;21.978;2023-05-10T13:42:57;8.90;;;3.35;;
37131;SDS011;23035;50.032;21.978;2023-05-10T13:48:03;8.13;;;3.20;;
37131;SDS011;23035;50.032;21.978;2023-05-10T13:53:07;9.35;;;3.35;;
37131;SDS011;23035;50.032;21.978;2023-05-10T13:58:11;9.77;;;3.20;;
37131;SDS011;23035;50.032;21.978;2023-05-10T14:03:17;7.85;;;2.80;;
37131;SDS011;23035;50.032;21.978;2023-05-10T14:08:21;8.65;;;2.75;;
37131;SDS011;23035;50.032;21.978;2023-05-10T14:13:25;5.32;;;2.75;;
37131;SDS011;23035;50.032;21.978;2023-05-10T14:18:31;11.10;;;3.17;;
37131;SDS011;23035;50.032;21.978;2023-05-10T14:23:35;8.32;;;3.10;;
37131;SDS011;23035;50.032;21.978;2023-05-10T14:28:39;5.53;;;2.88;;
37131;SDS011;23035;50.032;21.978;2023-05-10T14:33:44;8.40;;;3.70;;
37131;SDS011;23035;50.032;21.978;2023-05-10T14:38:48;9.07;;;2.70;;
37131;SDS011;23035;50.032;21.978;2023-05-10T14:43:53;10.02;;;2.53;;
37131;SDS011;23035;50.032;21.978;2023-05-10T14:48:58;5.30;;;2.88;;
37131;SDS011;23035;50.032;21.978;2023-05-10T14:54:02;6.20;;;2.58;;
37131;SDS011;23035;50.032;21.978;2023-05-10T14:59:07;10.75;;;2.63;;
37131;SDS011;23035;50.032;21.978;2023-05-10T15:04:13;6.60;;;2.60;;
37131;SDS011;23035;50.032;21.978;2023-05-10T15:09:19;5.93;;;2.78;;
37131;SDS011;23035;50.032;21.978;2023-05-10T15:14:23;9.85;;;2.85;;
37131;SDS011;23035;50.032;21.978;2023-05-10T15:19:28;5.60;;;2.22;;
37131;SDS011;23035;50.032;21.978;2023-05-10T15:24:32;4.85;;;2.50;;
37131;SDS011;23035;50.032;21.978;2023-05-10T15:29:36;9.57;;;2.70;;
37131;SDS011;23035;50.032;21.978;2023-05-10T15:34:42;7.25;;;2.95;;
37131;SDS011;23035;50.032;21.978;2023-05-10T15:45:08;4.80;;;2.50;;
37131;SDS011;23035;50.032;21.978;2023-05-10T15:50:15;9.25;;;2.58;;
37131;SDS011;23035;50.032;21.978;2023-05-10T15:55:19;8.02;;;2.88;;
37131;SDS011;23035;50.032;21.978;2023-05-10T16:00:23;7.88;;;2.67;;
37131;SDS011;23035;50.032;21.978;2023-05-10T16:05:29;5.95;;;2.45;;
37131;SDS011;23035;50.032;21.978;2023-05-10T16:10:34;8.40;;;2.88;;
37131;SDS011;23035;50.032;21.978;2023-05-10T16:15:39;6.63;;;2.60;;
37131;SDS011;23035;50.032;21.978;2023-05-10T16:20:44;7.40;;;2.47;;
37131;SDS011;23035;50.032;21.978;2023-05-10T16:25:48;9.80;;;3.05;;
37131;SDS011;23035;50.032;21.978;2023-05-10T16:30:52;6.50;;;2.60;;
37131;SDS011;23035;50.032;21.978;2023-05-10T16:35:57;16.13;;;3.08;;
37131;SDS011;23035;50.032;21.978;2023-05-10T16:41:02;10.63;;;3.10;;
37131;SDS011;23035;50.032;21.978;2023-05-10T16:46:09;9.38;;;2.97;;
37131;SDS011;23035;50.032;21.978;2023-05-10T16:51:15;6.65;;;3.30;;
37131;SDS011;23035;50.032;21.978;2023-05-10T16:56:19;6.43;;;2.78;;
37131;SDS011;23035;50.032;21.978;2023-05-10T17:01:24;6.53;;;2.95;;
37131;SDS011;23035;50.032;21.978;2023-05-10T17:06:30;13.27;;;2.83;;
37131;SDS011;23035;50.032;21.978;2023-05-10T17:11:35;12.23;;;3.08;;
37131;SDS011;23035;50.032;21.978;2023-05-10T17:16:39;6.70;;;2.75;;
37131;SDS011;23035;50.032;21.978;2023-05-10T17:21:45;12.13;;;3.03;;
37131;SDS011;23035;50.032;21.978;2023-05-10T17:26:49;9.65;;;3.15;;
37131;SDS011;23035;50.032;21.978;2023-05-10T17:31:57;10.57;;;3.83;;
37131;SDS011;23035;50.032;21.978;2023-05-10T17:37:03;12.65;;;3.33;;
37131;SDS011;23035;50.032;21.978;2023-05-10T17:42:07;10.25;;;3.40;;
37131;SDS011;23035;50.032;21.978;2023-05-10T17:47:11;6.13;;;3.30;;
37131;SDS011;23035;50.032;21.978;2023-05-10T17:52:17;7.43;;;3.47;;
37131;SDS011;23035;50.032;21.978;2023-05-10T17:57:21;10.35;;;3.50;;
37131;SDS011;23035;50.032;21.978;2023-05-10T18:02:25;11.48;;;3.95;;
37131;SDS011;23035;50.032;21.978;2023-05-10T18:07:31;11.55;;;3.60;;
37131;SDS011;23035;50.032;21.978;2023-05-10T18:12:37;11.48;;;4.70;;
37131;SDS011;23035;50.032;21.978;2023-05-10T18:17:41;9.07;;;4.25;;
37131;SDS011;23035;50.032;21.978;2023-05-10T18:22:47;12.07;;;4.35;;
37131;SDS011;23035;50.032;21.978;2023-05-10T18:32:55;13.10;;;4.93;;
37131;SDS011;23035;50.032;21.978;2023-05-10T18:38:00;9.02;;;4.70;;
37131;SDS011;23035;50.032;21.978;2023-05-10T18:43:04;8.77;;;4.28;;
37131;SDS011;23035;50.032;21.978;2023-05-10T18:48:08;7.95;;;4.38;;
37131;SDS011;23035;50.032;21.978;2023-05-10T18:53:14;10.73;;;4.03;;
37131;SDS011;23035;50.032;21.978;2023-05-10T18:58:18;12.75;;;4.63;;
37131;SDS011;23035;50.032;21.978;2023-05-10T19:03:22;11.57;;;5.03;;
37131;SDS011;23035;50.032;21.978;2023-05-10T19:08:28;9.95;;;4.55;;
37131;SDS011;23035;50.032;21.978;2023-05-10T19:13:32;22.40;;;4.95;;
37131;SDS011;23035;50.032;21.978;2023-05-10T19:18:37;11.95;;;4.57;;
37131;SDS011;23035;50.032;21.978;2023-05-10T19:23:43;16.25;;;6.68;;
37131;SDS011;23035;50.032;21.978;2023-05-10T19:28:49;12.77;;;7.18;;
37131;SDS011;23035;50.032;21.978;2023-05-10T19:33:53;15.57;;;5.40;;
37131;SDS011;23035;50.032;21.978;2023-05-10T19:39:03;17.63;;;5.78;;
37131;SDS011;23035;50.032;21.978;2023-05-10T19:44:07;11.70;;;5.47;;
37131;SDS011;23035;50.032;21.978;2023-05-10T19:49:11;13.68;;;5.30;;
37131;SDS011;23035;50.032;21.978;2023-05-10T19:54:16;14.15;;;5.30;;
37131;SDS011;23035;50.032;21.978;2023-05-10T19:59:20;11.82;;;4.80;;
37131;SDS011;23035;50.032;21.978;2023-05-10T20:04:24;17.08;;;4.72;;
37131;SDS011;23035;50.032;21.978;2023-05-10T20:09:31;17.60;;;5.43;;
37131;SDS011;23035;50.032;21.978;2023-05-10T20:14:35;16.40;;;4.97;;
37131;SDS011;23035;50.032;21.978;2023-05-10T20:19:39;12.40;;;4.45;;
37131;SDS011;23035;50.032;21.978;2023-05-10T20:24:45;18.15;;;5.68;;
37131;SDS011;23035;50.032;21.978;2023-05-10T20:34:53;20.70;;;7.85;;
37131;SDS011;23035;50.032;21.978;2023-05-10T20:39:59;26.00;;;8.00;;
37131;SDS011;23035;50.032;21.978;2023-05-10T20:45:03;22.38;;;7.88;;
37131;SDS011;23035;50.032;21.978;2023-05-10T20:50:08;18.75;;;7.85;;
37131;SDS011;23035;50.032;21.978;2023-05-10T20:55:14;19.73;;;7.93;;
37131;SDS011;23035;50.032;21.978;2023-05-10T21:00:19;19.50;;;7.18;;
37131;SDS011;23035;50.032;21.978;2023-05-10T21:05:23;16.95;;;6.88;;
37131;SDS011;23035;50.032;21.978;2023-05-10T21:10:29;20.25;;;6.97;;
37131;SDS011;23035;50.032;21.978;2023-05-10T21:15:33;16.80;;;5.43;;
37131;SDS011;23035;50.032;21.978;2023-05-10T21:20:36;22.92;;;6.82;;
37131;SDS011;23035;50.032;21.978;2023-05-10T21:25:42;15.15;;;5.65;;
37131;SDS011;23035;50.032;21.978;2023-05-10T21:30:46;18.60;;;6.28;;
37131;SDS011;23035;50.032;21.978;2023-05-10T21:35:50;18.08;;;5.93;;
37131;SDS011;23035;50.032;21.978;2023-05-10T21:40:56;16.15;;;6.20;;
37131;SDS011;23035;50.032;21.978;2023-05-10T21:45:59;14.60;;;5.60;;
37131;SDS011;23035;50.032;21.978;2023-05-10T21:51:04;14.98;;;5.20;;
37131;SDS011;23035;50.032;21.978;2023-05-10T21:56:09;18.40;;;5.03;;
37131;SDS011;23035;50.032;21.978;2023-05-10T22:01:14;27.30;;;6.18;;
37131;SDS011;23035;50.032;21.978;2023-05-10T22:06:19;15.17;;;4.30;;
37131;SDS011;23035;50.032;21.978;2023-05-10T22:11:24;18.02;;;5.47;;
37131;SDS011;23035;50.032;21.978;2023-05-10T22:16:28;14.82;;;4.93;;
37131;SDS011;23035;50.032;21.978;2023-05-10T22:21:32;17.63;;;5.05;;
37131;SDS011;23035;50.032;21.978;2023-05-10T22:26:38;15.15;;;6.10;;
37131;SDS011;23035;50.032;21.978;2023-05-10T22:31:42;12.68;;;4.35;;
37131;SDS011;23035;50.032;21.978;2023-05-10T22:36:46;13.95;;;5.68;;
37131;SDS011;23035;50.032;21.978;2023-05-10T22:41:52;16.27;;;5.85;;
37131;SDS011;23035;50.032;21.978;2023-05-10T22:46:56;9.18;;;5.20;;
37131;SDS011;23035;50.032;21.978;2023-05-10T22:52:00;14.45;;;5.75;;
37131;SDS011;23035;50.032;21.978;2023-05-10T22:57:05;14.23;;;5.63;;
37131;SDS011;23035;50.032;21.978;2023-05-10T23:02:09;11.30;;;5.45;;
37131;SDS011;23035;50.032;21.978;2023-05-10T23:07:15;15.02;;;6.07;;
37131;SDS011;23035;50.032;21.978;2023-05-10T23:12:20;16.05;;;6.22;;
37131;SDS011;23035;50.032;21.978;2023-05-10T23:17:24;14.15;;;5.68;;
37131;SDS011;23035;50.032;21.978;2023-05-10T23:22:28;13.82;;;6.25;;
37131;SDS011;23035;50.032;21.978;2023-05-10T23:27:34;11.85;;;5.63;;
37131;SDS011;23035;50.032;21.978;2023-05-10T23:32:37;18.50;;;5.70;;
37131;SDS011;23035;50.032;21.978;2023-05-10T23:37:42;9.80;;;5.20;;
37131;SDS011;23035;50.032;21.978;2023-05-10T23:42:47;10.77;;;5.00;;
37131;SDS011;23035;50.032;21.978;2023-05-10T23:47:51;18.40;;;4.85;;
37131;SDS011;23035;50.032;21.978;2023-05-10T23:52:55;13.07;;;4.70;;
37131;SDS011;23035;50.032;21.978;2023-05-10T23:58:00;15.25;;;5.97;;
